createdAt,value
2023-04-27T00:00:27.523Z,97739.00
2023-04-27T00:02:56.255Z,97735.53
2023-04-27T00:05:25.233Z,97728.53
2023-04-27T00:07:53.637Z,97730.47
2023-04-27T00:10:23.487Z,97718.41
2023-04-27T00:12:51.826Z,97731.44
2023-04-27T00:15:20.156Z,97729.84
2023-04-27T00:17:48.584Z,97737.72
2023-04-27T00:20:17.142Z,97727.34
2023-04-27T00:22:45.803Z,97722.47
2023-04-27T00:25:14.312Z,97730.88
2023-04-27T00:27:44.128Z,97720.75
2023-04-27T00:30:12.952Z,97718.00
2023-04-27T00:32:42.459Z,97724.25
2023-04-27T00:35:11.631Z,97722.53
2023-04-27T00:37:39.872Z,97717.53
2023-04-27T00:40:09.352Z,97724.75
2023-04-27T00:42:38.024Z,97718.84
2023-04-27T00:45:09.136Z,97729.53
2023-04-27T00:47:38.245Z,97720.88
2023-04-27T00:50:08.778Z,97723.66
2023-04-27T00:52:37.967Z,97723.81
2023-04-27T00:55:07.454Z,97725.63
2023-04-27T00:57:35.914Z,97726.53
2023-04-27T01:00:08.258Z,97724.16
2023-04-27T01:02:37.303Z,97724.81
2023-04-27T01:05:07.354Z,97714.56
2023-04-27T01:07:38.733Z,97730.03
2023-04-27T01:10:08.429Z,97730.88
2023-04-27T01:12:37.308Z,97728.41
2023-04-27T01:15:10.231Z,97719.75
2023-04-27T01:17:38.709Z,97731.78
2023-04-27T01:20:09.772Z,97729.28
2023-04-27T01:22:38.398Z,97737.97
2023-04-27T01:25:09.229Z,97731.00
2023-04-27T01:27:37.535Z,97736.38
2023-04-27T01:30:06.948Z,97725.19
2023-04-27T01:32:35.323Z,97725.47
2023-04-27T01:35:03.604Z,97717.69
2023-04-27T01:37:32.712Z,97731.66
2023-04-27T01:40:01.102Z,97735.38
2023-04-27T01:42:31.689Z,97739.72
2023-04-27T01:45:00.761Z,97734.50
2023-04-27T01:47:29.241Z,97738.81
2023-04-27T01:49:57.657Z,97740.53
2023-04-27T01:52:26.188Z,97742.22
2023-04-27T01:54:54.363Z,97747.34
2023-04-27T01:57:23.875Z,97750.88
2023-04-27T01:59:53.698Z,97736.38
2023-04-27T02:02:23.554Z,97753.59
2023-04-27T02:04:52.169Z,97748.44
2023-04-27T02:07:20.879Z,97738.84
2023-04-27T02:09:49.157Z,97749.22
2023-04-27T02:12:17.486Z,97755.22
2023-04-27T02:14:45.758Z,97748.63
2023-04-27T02:17:15.378Z,97757.75
2023-04-27T02:19:43.651Z,97753.41
2023-04-27T02:22:12.607Z,97752.50
2023-04-27T02:24:41.241Z,97757.69
2023-04-27T02:27:09.526Z,97753.97
2023-04-27T02:29:39.371Z,97764.38
2023-04-27T02:32:08.245Z,97760.59
2023-04-27T02:34:37.956Z,97742.56
2023-04-27T02:37:06.206Z,97754.53
2023-04-27T02:39:35.058Z,97758.88
2023-04-27T02:42:04.224Z,97759.53
2023-04-27T02:44:32.516Z,97747.50
2023-04-27T02:47:01.311Z,97758.63
2023-04-27T02:49:29.656Z,97755.97
2023-04-27T02:51:59.508Z,97748.13
2023-04-27T02:54:27.838Z,97765.72
2023-04-27T02:56:56.239Z,97760.47
2023-04-27T02:59:24.486Z,97753.63
2023-04-27T03:01:52.904Z,97755.25
2023-04-27T03:04:21.261Z,97757.88
2023-04-27T03:06:50.134Z,97767.38
2023-04-27T03:09:19.961Z,97772.59
2023-04-27T03:11:48.196Z,97764.75
2023-04-27T03:14:16.384Z,97768.97
2023-04-27T03:16:44.750Z,97774.28
2023-04-27T03:19:15.193Z,97774.16
2023-04-27T03:21:43.616Z,97774.16
2023-04-27T03:24:11.873Z,97769.72
2023-04-27T03:26:41.641Z,97771.78
2023-04-27T03:29:10.144Z,97774.41
2023-04-27T03:31:38.580Z,97776.13
2023-04-27T03:34:06.897Z,97781.50
2023-04-27T03:36:35.335Z,97781.50
2023-04-27T03:39:03.993Z,97777.03
2023-04-27T03:41:32.370Z,97785.72
2023-04-27T03:44:01.973Z,97777.22
2023-04-27T03:46:30.570Z,97775.81
2023-04-27T03:48:58.896Z,97776.78
2023-04-27T03:51:27.860Z,97784.56
2023-04-27T03:53:56.236Z,97783.69
2023-04-27T03:56:24.909Z,97778.34
2023-04-27T03:58:53.406Z,97781.84
2023-04-27T04:01:25.028Z,97783.56
2023-04-27T04:03:53.320Z,97781.84
2023-04-27T04:06:21.756Z,97788.94
2023-04-27T04:08:50.122Z,97774.44
2023-04-27T04:11:18.631Z,97790.53
2023-04-27T04:13:47.497Z,97786.88
2023-04-27T04:16:16.206Z,97787.84
2023-04-27T04:18:46.534Z,97793.72
2023-04-27T04:21:14.787Z,97792.75
2023-04-27T04:23:43.967Z,97794.38
2023-04-27T04:26:13.784Z,97792.66
2023-04-27T04:28:42.355Z,97801.41
2023-04-27T04:31:10.920Z,97792.50
2023-04-27T04:33:39.321Z,97782.72
2023-04-27T04:36:11.134Z,97802.47
2023-04-27T04:38:40.167Z,97796.31
2023-04-27T04:41:08.805Z,97801.25
2023-04-27T04:43:38.819Z,97808.75
2023-04-27T04:46:08.584Z,97812.19
2023-04-27T04:48:37.188Z,97812.06
2023-04-27T04:51:07.006Z,97813.53
2023-04-27T04:53:38.273Z,97799.47
2023-04-27T04:56:11.259Z,97805.88
2023-04-27T04:58:40.099Z,97806.72
2023-04-27T05:01:08.680Z,97818.72
2023-04-27T05:03:37.551Z,97811.16
2023-04-27T05:06:06.602Z,97808.84
2023-04-27T05:08:35.166Z,97817.28
2023-04-27T05:11:05.254Z,97817.16
2023-04-27T05:13:33.699Z,97821.03
2023-04-27T05:16:06.510Z,97803.19
2023-04-27T05:18:35.376Z,97815.03
2023-04-27T05:21:04.110Z,97823.81
2023-04-27T05:23:32.615Z,97821.38
2023-04-27T05:26:01.128Z,97827.16
2023-04-27T05:28:31.484Z,97820.31
2023-04-27T05:31:00.124Z,97820.81
2023-04-27T05:33:28.588Z,97817.03
2023-04-27T05:35:56.879Z,97831.44
2023-04-27T05:38:25.631Z,97837.97
2023-04-27T05:40:56.780Z,97826.50
2023-04-27T05:43:25.434Z,97839.97
2023-04-27T05:45:55.362Z,97837.38
2023-04-27T05:48:23.865Z,97842.03
2023-04-27T05:51:04.233Z,97830.94
2023-04-27T05:53:34.419Z,97832.72
2023-04-27T05:56:11.852Z,97838.06
2023-04-27T05:58:40.505Z,97835.75
2023-04-27T06:01:10.790Z,97838.47
2023-04-27T06:03:39.869Z,97833.97
2023-04-27T06:06:08.939Z,97835.88
2023-04-27T06:08:39.636Z,97846.06
2023-04-27T06:11:08.146Z,97843.78
2023-04-27T06:13:36.974Z,97836.44
2023-04-27T06:16:13.350Z,97862.50
2023-04-27T06:18:43.394Z,97833.41
2023-04-27T06:21:11.803Z,97844.19
2023-04-27T06:23:40.077Z,97850.34
2023-04-27T06:26:08.623Z,97866.25
2023-04-27T06:28:37.077Z,97855.66
2023-04-27T06:31:06.484Z,97846.75
2023-04-27T06:33:35.310Z,97860.84
2023-04-27T06:36:05.765Z,97862.47
2023-04-27T06:38:35.293Z,97858.16
2023-04-27T06:41:03.615Z,97867.59
2023-04-27T06:43:32.300Z,97865.91
2023-04-27T06:46:00.864Z,97860.72
2023-04-27T06:48:29.315Z,97863.25
2023-04-27T06:50:57.808Z,97858.47
2023-04-27T06:53:27.802Z,97863.22
2023-04-27T06:55:57.074Z,97853.44
2023-04-27T06:58:25.709Z,97854.50
2023-04-27T07:00:54.939Z,97863.75
2023-04-27T07:03:23.722Z,97862.88
2023-04-27T07:05:53.128Z,97858.03
2023-04-27T07:08:21.821Z,97864.00
2023-04-27T07:10:51.920Z,97864.09
2023-04-27T07:13:20.450Z,97849.66
2023-04-27T07:15:48.777Z,97841.91
2023-04-27T07:18:17.518Z,97856.88
2023-04-27T07:20:46.193Z,97869.28
2023-04-27T07:23:14.845Z,97849.69
2023-04-27T07:25:43.720Z,97863.25
2023-04-27T07:28:14.018Z,97858.81
2023-04-27T07:30:42.972Z,97851.94
2023-04-27T07:33:11.900Z,97843.94
2023-04-27T07:35:40.625Z,97844.28
2023-04-27T07:38:09.146Z,97837.53
2023-04-27T07:40:37.912Z,97822.78
2023-04-27T07:43:06.973Z,97827.44
2023-04-27T07:45:39.174Z,97836.25
2023-04-27T07:48:08.107Z,97817.13
2023-04-27T07:50:36.952Z,97822.66
2023-04-27T07:53:05.799Z,97830.19
2023-04-27T07:55:34.308Z,97821.63
2023-04-27T07:58:03.690Z,97830.59
2023-04-27T08:00:32.304Z,97829.19
2023-04-27T08:03:02.737Z,97823.34
2023-04-27T08:05:32.029Z,97819.25
2023-04-27T08:08:01.809Z,97822.31
2023-04-27T08:10:30.417Z,97827.06
2023-04-27T08:12:58.880Z,97825.13
2023-04-27T08:15:27.838Z,97814.88
2023-04-27T08:17:56.520Z,97819.91
2023-04-27T08:20:26.409Z,97823.69
2023-04-27T08:22:55.381Z,97816.94
2023-04-27T08:25:24.328Z,97815.59
2023-04-27T08:28:07.839Z,97817.88
2023-04-27T08:31:22.874Z,97806.81
2023-04-27T08:34:53.821Z,97811.84
2023-04-27T08:38:44.065Z,97811.28
2023-04-27T08:41:33.123Z,97816.19
2023-04-27T08:44:01.814Z,97814.94
2023-04-27T08:46:31.727Z,97811.47
2023-04-27T08:49:01.496Z,97819.47
2023-04-27T08:51:30.482Z,97803.22
2023-04-27T08:54:00.510Z,97813.50
2023-04-27T08:56:30.548Z,97812.34
2023-04-27T08:58:59.908Z,97803.16
2023-04-27T09:01:28.911Z,97788.91
2023-04-27T09:03:59.071Z,97793.84
2023-04-27T09:06:32.000Z,97788.69
2023-04-27T09:09:02.943Z,97788.91
2023-04-27T09:11:34.054Z,97781.03
2023-04-27T09:14:03.908Z,97789.28
2023-04-27T09:16:33.196Z,97786.06
2023-04-27T09:19:01.858Z,97779.81
2023-04-27T09:21:31.482Z,97774.16
2023-04-27T09:24:10.988Z,97775.88
2023-04-27T09:26:40.217Z,97770.88
2023-04-27T09:29:09.352Z,97781.94
2023-04-27T09:31:38.464Z,97788.16
2023-04-27T09:34:07.197Z,97784.22
2023-04-27T09:36:36.246Z,97754.69
2023-04-27T09:39:06.354Z,97765.97
2023-04-27T09:41:35.930Z,97767.22
2023-04-27T09:44:05.421Z,97756.38
2023-04-27T09:46:35.312Z,97766.25
2023-04-27T09:49:06.567Z,97752.69
2023-04-27T09:51:35.790Z,97762.75
2023-04-27T09:54:06.965Z,97754.91
2023-04-27T09:56:48.868Z,97753.75
2023-04-27T09:59:37.907Z,97756.47
2023-04-27T10:02:23.645Z,97761.97
2023-04-27T10:05:16.974Z,97745.69
2023-04-27T10:07:47.789Z,97750.88
2023-04-27T10:10:21.157Z,97759.47
2023-04-27T10:13:00.220Z,97753.16
2023-04-27T10:15:29.911Z,97749.97
2023-04-27T10:18:05.569Z,97740.44
2023-04-27T10:20:37.555Z,97740.00
2023-04-27T10:23:06.606Z,97730.84
2023-04-27T10:25:42.153Z,97731.47
2023-04-27T10:28:17.740Z,97719.66
2023-04-27T10:30:49.281Z,97717.56
2023-04-27T10:33:19.805Z,97726.75
2023-04-27T10:35:56.872Z,97721.88
2023-04-27T10:38:30.418Z,97725.28
2023-04-27T10:41:02.484Z,97718.34
2023-04-27T10:43:32.451Z,97720.31
2023-04-27T10:46:11.868Z,97715.28
2023-04-27T10:48:40.840Z,97721.56
2023-04-27T10:51:09.242Z,97719.53
2023-04-27T10:53:38.139Z,97723.44
2023-04-27T10:56:08.691Z,97715.25
2023-04-27T11:01:10.501Z,97706.41
2023-04-27T11:03:39.486Z,97700.84
2023-04-27T11:06:08.780Z,97711.59
2023-04-27T11:08:45.772Z,97698.69
2023-04-27T11:11:18.358Z,97706.34
2023-04-27T11:13:49.427Z,97687.03
2023-04-27T11:16:19.657Z,97692.41
2023-04-27T11:18:48.113Z,97691.41
2023-04-27T11:21:18.168Z,97702.28
2023-04-27T11:23:46.909Z,97705.44
2023-04-27T11:26:18.979Z,97706.47
2023-04-27T11:29:00.273Z,97709.47
2023-04-27T11:31:29.278Z,97709.47
2023-04-27T11:33:57.799Z,97704.63
2023-04-27T11:36:27.424Z,97703.50
2023-04-27T11:39:00.475Z,97696.34
2023-04-27T11:41:36.924Z,97699.25
2023-04-27T11:44:07.705Z,97694.19
2023-04-27T11:46:38.187Z,97708.72
2023-04-27T11:49:09.025Z,97707.41
2023-04-27T11:51:37.790Z,97703.13
2023-04-27T11:54:07.440Z,97710.09
2023-04-27T11:56:38.312Z,97691.53
2023-04-27T11:59:07.075Z,97709.13
2023-04-27T12:01:38.414Z,97700.94
2023-04-27T12:04:07.266Z,97710.88
2023-04-27T12:06:35.969Z,97712.28
2023-04-27T12:09:05.404Z,97713.69
2023-04-27T12:11:34.368Z,97716.41
2023-04-27T12:14:04.627Z,97710.84
2023-04-27T12:16:33.045Z,97703.09
2023-04-27T12:19:01.717Z,97700.28
2023-04-27T12:21:30.361Z,97711.03
2023-04-27T12:23:58.684Z,97692.41
2023-04-27T12:26:27.145Z,97694.81
2023-04-27T12:28:56.226Z,97686.81
2023-04-27T12:31:27.808Z,97688.47
2023-04-27T12:33:57.828Z,97671.41
2023-04-27T12:36:27.350Z,97678.00
2023-04-27T12:39:00.190Z,97678.94
2023-04-27T12:41:29.390Z,97686.06
2023-04-27T12:43:57.854Z,97684.38
2023-04-27T12:46:27.634Z,97666.63
2023-04-27T12:48:57.364Z,97681.78
2023-04-27T12:51:25.891Z,97669.41
2023-04-27T12:53:54.289Z,97675.25
2023-04-27T12:56:22.738Z,97668.03
2023-04-27T12:58:51.074Z,97675.09
2023-04-27T13:01:19.904Z,97678.78
2023-04-27T13:03:49.932Z,97659.81
2023-04-27T13:06:18.318Z,97668.66
2023-04-27T13:08:46.819Z,97674.69
2023-04-27T13:11:15.354Z,97682.84
2023-04-27T13:13:44.319Z,97664.06
2023-04-27T13:16:13.132Z,97673.28
2023-04-27T13:18:46.583Z,97677.50
2023-04-27T13:21:17.799Z,97680.53
2023-04-27T13:23:47.161Z,97686.69
2023-04-27T13:26:15.908Z,97680.88
2023-04-27T13:28:44.574Z,97685.69
2023-04-27T13:31:13.049Z,97676.56
2023-04-27T13:33:43.372Z,97673.16
2023-04-27T13:36:12.916Z,97666.91
2023-04-27T13:38:42.781Z,97663.28
2023-04-27T13:41:11.276Z,97655.56
2023-04-27T13:43:39.639Z,97663.44
2023-04-27T13:46:08.135Z,97661.69
2023-04-27T13:48:36.617Z,97645.88
2023-04-27T13:51:05.568Z,97663.56
2023-04-27T13:53:33.983Z,97660.47
2023-04-27T13:56:04.007Z,97660.94
2023-04-27T13:58:33.743Z,97659.94
2023-04-27T14:01:02.291Z,97657.47
2023-04-27T14:03:30.936Z,97656.50
2023-04-27T14:05:59.468Z,97659.91
2023-04-27T14:08:27.776Z,97649.00
2023-04-27T14:10:56.955Z,97644.16
2023-04-27T14:13:27.064Z,97636.25
2023-04-27T14:15:55.526Z,97663.78
2023-04-27T14:18:29.784Z,97656.06
2023-04-27T14:21:01.169Z,97656.88
2023-04-27T14:23:29.616Z,97664.44
2023-04-27T14:25:58.026Z,97657.56
2023-04-27T14:28:27.916Z,97649.84
2023-04-27T14:30:56.270Z,97659.38
2023-04-27T14:33:24.778Z,97666.81
2023-04-27T14:35:53.248Z,97669.81
2023-04-27T14:38:21.787Z,97664.56
2023-04-27T14:40:50.226Z,97661.78
2023-04-27T14:43:18.477Z,97651.84
2023-04-27T14:45:52.720Z,97662.78
2023-04-27T14:48:24.819Z,97663.94
2023-04-27T14:50:53.974Z,97658.59
2023-04-27T14:53:22.454Z,97662.19
2023-04-27T14:55:50.736Z,97667.88
2023-04-27T14:58:19.087Z,97655.25
2023-04-27T15:00:49.541Z,97669.81
2023-04-27T15:03:18.455Z,97666.34
2023-04-27T15:05:46.959Z,97651.34
2023-04-27T15:08:15.543Z,97666.69
2023-04-27T15:10:43.890Z,97664.50
2023-04-27T15:13:13.111Z,97665.09
2023-04-27T15:15:41.793Z,97657.56
2023-04-27T15:18:11.662Z,97670.69
2023-04-27T15:20:40.197Z,97668.09
2023-04-27T15:23:08.430Z,97671.63
2023-04-27T15:25:36.870Z,97672.97
2023-04-27T15:28:05.381Z,97666.47
2023-04-27T15:30:36.182Z,97666.31
2023-04-27T15:33:04.543Z,97669.81
2023-04-27T15:35:34.275Z,97666.09
2023-04-27T15:38:02.706Z,97664.03
2023-04-27T15:40:31.013Z,97677.34
2023-04-27T15:42:59.397Z,97666.06
2023-04-27T15:45:28.615Z,97673.44
2023-04-27T15:47:57.001Z,97663.66
2023-04-27T15:50:25.774Z,97681.00
2023-04-27T15:52:55.622Z,97661.88
2023-04-27T15:55:24.046Z,97667.50
2023-04-27T15:57:52.459Z,97662.97
2023-04-27T16:00:22.725Z,97664.00
2023-04-27T16:02:52.536Z,97649.91
2023-04-27T16:05:21.523Z,97651.34
2023-04-27T16:07:49.975Z,97658.38
2023-04-27T16:10:19.710Z,97642.44
2023-04-27T16:12:48.030Z,97660.19
2023-04-27T16:15:16.461Z,97655.09
2023-04-27T16:17:44.969Z,97649.84
2023-04-27T16:20:13.394Z,97651.78
2023-04-27T16:22:41.724Z,97662.91
2023-04-27T16:25:11.630Z,97641.44
2023-04-27T16:27:42.693Z,97648.56
2023-04-27T16:30:11.571Z,97652.09
2023-04-27T16:32:40.401Z,97659.00
2023-04-27T16:35:09.688Z,97665.84
2023-04-27T16:37:38.422Z,97662.19
2023-04-27T16:40:08.806Z,97658.84
2023-04-27T16:42:37.358Z,97665.53
2023-04-27T16:45:10.554Z,97649.97
2023-04-27T16:47:39.874Z,97645.47
2023-04-27T16:50:08.943Z,97664.69
2023-04-27T16:52:37.717Z,97667.69
2023-04-27T16:55:07.439Z,97662.34
2023-04-27T16:57:35.952Z,97672.31
2023-04-27T17:00:06.613Z,97671.09
2023-04-27T17:02:37.562Z,97658.13
2023-04-27T17:05:07.584Z,97670.50
2023-04-27T17:07:36.209Z,97675.34
2023-04-27T17:10:05.813Z,97678.75
2023-04-27T17:12:34.160Z,97678.72
2023-04-27T17:15:02.926Z,97663.91
2023-04-27T17:17:33.304Z,97674.56
2023-04-27T17:20:05.718Z,97670.19
2023-04-27T17:22:34.308Z,97688.28
2023-04-27T17:25:03.548Z,97693.72
2023-04-27T17:27:32.902Z,97677.72
2023-04-27T17:30:01.350Z,97687.28
2023-04-27T17:32:30.182Z,97694.22
2023-04-27T17:34:58.955Z,97695.44
2023-04-27T17:37:28.840Z,97684.81
2023-04-27T17:39:57.504Z,97702.63
2023-04-27T17:42:26.583Z,97692.16
2023-04-27T17:44:55.696Z,97700.50
2023-04-27T17:47:25.650Z,97714.63
2023-04-27T17:49:54.614Z,97711.69
2023-04-27T17:52:23.123Z,97715.59
2023-04-27T17:54:54.305Z,97696.25
2023-04-27T17:57:22.970Z,97715.88
2023-04-27T17:59:51.706Z,97707.78
2023-04-27T18:02:20.427Z,97716.78
2023-04-27T18:04:49.779Z,97721.66
2023-04-27T18:07:19.595Z,97721.69
2023-04-27T18:09:48.272Z,97719.38
2023-04-27T18:12:18.405Z,97718.97
2023-04-27T18:14:47.318Z,97728.22
2023-04-27T18:17:16.462Z,97735.69
2023-04-27T18:19:45.477Z,97723.00
2023-04-27T18:22:14.649Z,97722.06
2023-04-27T18:24:44.236Z,97719.16
2023-04-27T18:27:12.816Z,97730.75
2023-04-27T18:29:45.113Z,97762.97
2023-04-27T18:32:14.580Z,97747.31
2023-04-27T18:34:43.862Z,97745.78
2023-04-27T18:37:12.368Z,97739.72
2023-04-27T18:39:41.755Z,97750.75
2023-04-27T18:42:10.333Z,97756.31
2023-04-27T18:44:39.334Z,97764.47
2023-04-27T18:47:09.811Z,97776.47
2023-04-27T18:49:38.214Z,97767.38
2023-04-27T18:52:07.994Z,97794.28
2023-04-27T18:54:37.598Z,97791.09
2023-04-27T18:57:06.516Z,97789.59
2023-04-27T18:59:35.454Z,97794.06
2023-04-27T19:02:06.448Z,97783.34
2023-04-27T19:04:37.263Z,97795.09
2023-04-27T19:07:07.815Z,97794.69
2023-04-27T19:09:39.156Z,97800.00
2023-04-27T19:12:07.957Z,97806.28
2023-04-27T19:14:36.772Z,97804.22
2023-04-27T19:17:06.538Z,97828.47
2023-04-27T19:19:38.357Z,97839.81
2023-04-27T19:22:08.833Z,97833.19
2023-04-27T19:24:37.723Z,97828.69
2023-04-27T19:27:06.648Z,97822.22
2023-04-27T19:29:51.154Z,97826.09
2023-04-27T19:32:20.933Z,97827.75
2023-04-27T19:34:51.488Z,97830.94
2023-04-27T19:37:21.993Z,97841.66
2023-04-27T19:39:51.084Z,97839.09
2023-04-27T19:42:20.695Z,97840.94
2023-04-27T19:44:50.363Z,97836.09
2023-04-27T19:47:19.792Z,97827.97
2023-04-27T19:49:48.826Z,97827.50
2023-04-27T19:52:18.677Z,97827.97
2023-04-27T19:54:52.710Z,97827.38
2023-04-27T19:57:22.375Z,97826.34
2023-04-27T19:59:51.388Z,97848.81
2023-04-27T20:02:19.931Z,97854.47
2023-04-27T20:04:48.890Z,97860.09
2023-04-27T20:07:19.243Z,97857.25
2023-04-27T20:09:47.865Z,97868.88
2023-04-27T20:12:37.382Z,97855.59
2023-04-27T20:15:07.786Z,97874.22
2023-04-27T20:17:36.767Z,97868.50
2023-04-27T20:20:09.672Z,97869.47
2023-04-27T20:22:40.150Z,97869.13
2023-04-27T20:25:09.417Z,97878.53
2023-04-27T20:27:37.959Z,97871.34
2023-04-27T20:30:07.164Z,97878.16
2023-04-27T20:32:36.368Z,97873.22
2023-04-27T20:35:05.418Z,97880.25
2023-04-27T20:37:33.720Z,97876.66
2023-04-27T20:40:04.832Z,97889.72
2023-04-27T20:42:33.262Z,97887.84
2023-04-27T20:45:02.148Z,97879.88
2023-04-27T20:47:30.449Z,97882.63
2023-04-27T20:49:58.653Z,97883.47
2023-04-27T20:52:31.036Z,97883.47
2023-04-27T20:55:01.232Z,97891.06
2023-04-27T20:57:30.991Z,97886.53
2023-04-27T20:59:59.450Z,97885.44
2023-04-27T21:02:27.690Z,97887.22
2023-04-27T21:04:56.085Z,97884.94
2023-04-27T21:07:24.479Z,97900.38
2023-04-27T21:09:52.776Z,97893.56
2023-04-27T21:12:21.190Z,97880.47
2023-04-27T21:14:50.861Z,97903.03
2023-04-27T21:17:19.337Z,97892.09
2023-04-27T21:19:47.599Z,97894.75
2023-04-27T21:22:16.121Z,97900.78
2023-04-27T21:24:44.583Z,97892.25
2023-04-27T21:27:13.680Z,97899.84
2023-04-27T21:29:41.956Z,97894.88
2023-04-27T21:32:11.694Z,97894.19
2023-04-27T21:34:40.283Z,97892.81
2023-04-27T21:37:08.729Z,97905.22
2023-04-27T21:39:37.106Z,97909.59
2023-04-27T21:42:05.796Z,97896.44
2023-04-27T21:44:34.373Z,97917.31
2023-04-27T21:47:02.757Z,97917.09
2023-04-27T21:49:32.619Z,97898.97
2023-04-27T21:52:00.911Z,97906.59
2023-04-27T21:54:29.118Z,97903.25
2023-04-27T21:56:57.280Z,97903.25
2023-04-27T21:59:25.720Z,97913.34
2023-04-27T22:01:54.071Z,97904.78
2023-04-27T22:04:22.916Z,97914.44
2023-04-27T22:06:53.376Z,97903.25
2023-04-27T22:09:21.712Z,97905.31
2023-04-27T22:11:49.871Z,97902.53
2023-04-27T22:14:18.287Z,97897.16
2023-04-27T22:16:46.618Z,97900.22
2023-04-27T22:19:15.191Z,97901.22
2023-04-27T22:21:43.540Z,97898.00
2023-04-27T22:24:13.561Z,97909.75
2023-04-27T22:26:42.013Z,97911.78
2023-04-27T22:29:10.694Z,97910.44
2023-04-27T22:31:39.390Z,97898.84
2023-04-27T22:34:07.950Z,97909.53
2023-04-27T22:36:36.318Z,97915.88
2023-04-27T22:39:05.863Z,97906.59
2023-04-27T22:41:36.266Z,97914.00
2023-04-27T22:44:05.054Z,97914.63
2023-04-27T22:46:33.321Z,97913.19
2023-04-27T22:49:02.350Z,97909.47
2023-04-27T22:51:30.602Z,97904.03
2023-04-27T22:53:58.918Z,97906.50
2023-04-27T22:56:27.359Z,97895.59
2023-04-27T22:58:57.129Z,97896.72
2023-04-27T23:01:25.402Z,97896.88
2023-04-27T23:03:54.194Z,97894.56
2023-04-27T23:06:22.672Z,97899.28
2023-04-27T23:08:51.231Z,97901.16
2023-04-27T23:11:19.525Z,97916.44
2023-04-27T23:13:50.874Z,97904.19
2023-04-27T23:16:20.561Z,97900.00
2023-04-27T23:18:48.878Z,97885.16
2023-04-27T23:21:17.176Z,97892.25
2023-04-27T23:23:45.678Z,97887.34
2023-04-27T23:26:15.282Z,97885.50
2023-04-27T23:28:44.042Z,97889.06
2023-04-27T23:31:12.649Z,97887.34
2023-04-27T23:33:42.567Z,97889.41
2023-04-27T23:36:10.965Z,97885.91
2023-04-27T23:38:39.273Z,97872.56
2023-04-27T23:41:07.813Z,97875.28
2023-04-27T23:43:36.029Z,97869.06
2023-04-27T23:46:05.914Z,97884.34
2023-04-27T23:48:34.560Z,97878.72
2023-04-27T23:51:05.497Z,97878.97
2023-04-27T23:53:33.894Z,97893.38
2023-04-27T23:56:02.238Z,97903.28
2023-04-27T23:58:30.445Z,97889.00
